Time;durP1;ratioP1;P1;durP2;ratioP2;P2;SDS_P1;SDS_P2;PMS_P1;PMS_P2;Temp;Humidity;BMP_temperature;BMP_pressure;BME280_temperature;BME280_humidity;BME280_pressure;Samples;Min_cycle;Max_cycle;Signal;HPM_P1;HPM_P2
2022/02/18 00:02:11;;;;;;;23.13;5.90;;;10.30;83.00;;;;;;4957961;29;20460;-89
2022/02/18 00:04:38;;;;;;;15.23;4.70;;;10.30;82.70;;;;;;4956781;29;20982;-89
2022/02/18 00:07:05;;;;;;;14.20;4.43;;;10.30;82.80;;;;;;4958137;28;20468;-89
2022/02/18 00:09:32;;;;;;;19.13;5.77;;;10.30;82.90;;;;;;4957026;29;20449;-88
2022/02/18 00:12:00;;;;;;;20.93;5.13;;;10.20;83.10;;;;;;4957555;29;20445;-88
2022/02/18 00:14:26;;;;;;;15.60;4.93;;;10.10;83.50;;;;;;4957108;28;20590;-88
2022/02/18 00:16:53;;;;;;;13.53;5.20;;;10.10;83.80;;;;;;4958284;28;20480;-88
2022/02/18 00:19:20;;;;;;;17.87;5.57;;;10.00;84.00;;;;;;4957838;29;20971;-88
2022/02/18 00:21:48;;;;;;;20.63;4.80;;;10.00;84.10;;;;;;4958219;28;20932;-88
2022/02/18 00:24:16;;;;;;;22.40;5.43;;;10.00;84.30;;;;;;4959596;29;20453;-88
2022/02/18 00:26:44;;;;;;;19.50;5.00;;;10.00;84.50;;;;;;4962305;28;20501;-87
2022/02/18 00:29:12;;;;;;;20.00;5.00;;;10.10;84.00;;;;;;4979530;28;20452;-88
2022/02/18 00:31:39;;;;;;;17.23;5.30;;;10.10;84.00;;;;;;4978614;29;20433;-88
2022/02/18 00:34:06;;;;;;;18.33;5.13;;;10.10;83.90;;;;;;4980312;28;20437;-88
2022/02/18 00:36:33;;;;;;;16.70;5.10;;;10.10;83.80;;;;;;4971073;28;20560;-88
2022/02/18 00:39:00;;;;;;;17.63;4.40;;;10.10;84.30;;;;;;4968094;28;20449;-87
2022/02/18 00:41:26;;;;;;;21.10;6.07;;;10.10;84.30;;;;;;4962274;28;20455;-88
2022/02/18 00:43:56;;;;;;;12.97;4.77;;;10.10;84.20;;;;;;4959024;29;20445;-88
2022/02/18 00:46:25;;;;;;;14.50;5.07;;;10.10;84.10;;;;;;4959484;28;20453;-87
2022/02/18 00:48:52;;;;;;;18.10;5.93;;;10.10;84.00;;;;;;4957399;29;20460;-88
2022/02/18 00:51:18;;;;;;;16.53;4.60;;;10.20;83.70;;;;;;4958566;29;20453;-88
2022/02/18 00:53:45;;;;;;;18.80;4.43;;;10.20;83.60;;;;;;4959197;29;20456;-88
2022/02/18 00:56:12;;;;;;;12.77;4.20;;;10.20;83.50;;;;;;4958079;29;20943;-88
2022/02/18 00:58:39;;;;;;;17.73;4.90;;;10.20;83.60;;;;;;4986881;23;20493;-89
2022/02/18 01:01:08;;;;;;;24.20;7.70;;;10.20;83.40;;;;;;4979153;29;20459;-88
2022/02/18 01:03:37;;;;;;;20.33;5.60;;;10.20;83.30;;;;;;4980430;28;20516;-89
2022/02/18 01:06:04;;;;;;;16.03;4.33;;;10.20;83.30;;;;;;4978674;28;20468;-87
2022/02/18 01:08:31;;;;;;;21.37;5.73;;;10.20;83.20;;;;;;4960372;28;20501;-88
2022/02/18 01:10:58;;;;;;;19.47;4.27;;;10.30;83.30;;;;;;4968068;29;20445;-88
2022/02/18 01:13:24;;;;;;;18.23;4.30;;;10.20;83.10;;;;;;4977469;28;20416;-88
2022/02/18 01:15:51;;;;;;;13.83;4.53;;;10.30;83.10;;;;;;4973778;29;20492;-88
2022/02/18 01:18:20;;;;;;;16.87;4.37;;;10.30;82.90;;;;;;4980454;28;20457;-89
2022/02/18 01:20:49;;;;;;;11.60;4.00;;;10.30;83.20;;;;;;4973611;28;20438;-88
2022/02/18 01:23:16;;;;;;;21.43;4.70;;;10.20;83.10;;;;;;4968236;28;20453;-87
2022/02/18 01:25:43;;;;;;;18.60;5.37;;;10.30;83.10;;;;;;4964999;29;20461;-87
2022/02/18 01:28:09;;;;;;;17.97;4.83;;;10.30;82.90;;;;;;4958580;28;20867;-88
2022/02/18 01:30:37;;;;;;;21.57;5.77;;;10.30;82.80;;;;;;4960128;28;20837;-87
2022/02/18 01:33:04;;;;;;;16.43;3.90;;;10.30;83.40;;;;;;4958569;29;20460;-87
2022/02/18 01:35:31;;;;;;;10.30;4.80;;;10.30;82.80;;;;;;4956660;28;20511;-87
2022/02/18 01:37:59;;;;;;;16.30;4.47;;;10.30;82.60;;;;;;4955803;28;21010;-87
2022/02/18 01:40:26;;;;;;;14.63;4.20;;;10.40;82.80;;;;;;4956299;29;20864;-88
2022/02/18 01:42:53;;;;;;;16.83;4.50;;;10.40;82.80;;;;;;4957767;29;20456;-87
2022/02/18 01:45:21;;;;;;;15.90;5.10;;;10.40;82.50;;;;;;4957047;28;20445;-88
2022/02/18 01:47:48;;;;;;;15.03;4.33;;;10.40;82.60;;;;;;4958530;28;20480;-87
2022/02/18 01:50:15;;;;;;;17.70;4.17;;;10.40;82.60;;;;;;4961196;29;20457;-88
2022/02/18 01:52:44;;;;;;;13.40;4.70;;;10.40;82.70;;;;;;4959277;29;20455;-88
2022/02/18 01:55:14;;;;;;;16.13;5.03;;;10.30;83.00;;;;;;4959106;28;20495;-88
2022/02/18 01:57:44;;;;;;;11.73;3.73;;;10.30;83.00;;;;;;4975768;28;20477;-89
2022/02/18 02:00:12;;;;;;;11.73;3.63;;;10.30;83.00;;;;;;4977549;29;20444;-88
2022/02/18 02:02:39;;;;;;;16.07;4.40;;;10.40;83.00;;;;;;4958780;28;20455;-87
2022/02/18 02:05:07;;;;;;;13.60;3.13;;;10.40;82.80;;;;;;4956745;29;20455;-88
2022/02/18 02:07:34;;;;;;;16.30;4.77;;;10.40;83.00;;;;;;4972957;28;20500;-88
2022/02/18 02:10:01;;;;;;;16.10;4.00;;;10.30;83.70;;;;;;4973746;28;20441;-88
2022/02/18 02:12:29;;;;;;;14.57;6.20;;;10.30;83.90;;;;;;4956510;28;20460;-87
2022/02/18 02:14:55;;;;;;;11.57;3.70;;;10.30;84.00;;;;;;4955849;28;20460;-87
2022/02/18 02:17:22;;;;;;;15.30;3.70;;;10.20;84.30;;;;;;4956166;28;20474;-87
2022/02/18 02:19:50;;;;;;;12.33;3.80;;;10.10;84.70;;;;;;4956628;29;20818;-88
2022/02/18 02:22:23;;;;;;;14.40;3.93;;;10.10;84.90;;;;;;4956095;28;20516;-87
2022/02/18 02:24:49;;;;;;;15.50;3.80;;;10.10;85.20;;;;;;4955987;29;20464;-88
2022/02/18 02:27:16;;;;;;;12.47;4.80;;;10.10;85.20;;;;;;4957318;28;20465;-88
2022/02/18 02:29:43;;;;;;;14.33;3.80;;;10.00;85.50;;;;;;4963019;28;20432;-87
2022/02/18 02:32:10;;;;;;;19.33;4.40;;;10.00;85.90;;;;;;4957013;28;20460;-87
2022/02/18 02:34:37;;;;;;;18.30;4.30;;;10.00;86.00;;;;;;4955211;28;20458;-87
2022/02/18 02:37:04;;;;;;;17.37;4.50;;;10.00;85.70;;;;;;4955380;28;20487;-87
2022/02/18 02:39:33;;;;;;;16.97;4.30;;;10.00;85.60;;;;;;4955818;28;20468;-87
2022/02/18 02:42:00;;;;;;;11.33;5.13;;;10.00;85.90;;;;;;4955330;28;20464;-87
2022/02/18 02:44:27;;;;;;;14.47;4.60;;;10.00;85.70;;;;;;4955291;29;20935;-87
2022/02/18 02:46:54;;;;;;;16.33;4.43;;;10.00;85.80;;;;;;4955750;28;20440;-88
2022/02/18 02:49:21;;;;;;;18.60;5.77;;;9.90;87.30;;;;;;4963765;28;20453;-88
2022/02/18 02:51:49;;;;;;;12.80;4.60;;;10.00;86.10;;;;;;4978218;28;20449;-87
2022/02/18 02:54:16;;;;;;;16.10;4.50;;;10.00;85.90;;;;;;4962219;29;20476;-88
2022/02/18 02:56:44;;;;;;;19.40;5.57;;;10.00;86.10;;;;;;4958957;28;20488;-88
2022/02/18 02:59:11;;;;;;;14.77;3.83;;;9.90;87.80;;;;;;4958748;28;20862;-87
2022/02/18 03:01:39;;;;;;;16.57;3.87;;;9.90;88.10;;;;;;4961753;28;20460;-88
2022/02/18 03:04:05;;;;;;;14.27;4.20;;;9.90;88.40;;;;;;4966945;28;20461;-87
2022/02/18 03:06:32;;;;;;;10.20;3.97;;;9.90;88.70;;;;;;4982702;28;20444;-89
2022/02/18 03:08:59;;;;;;;13.90;4.80;;;9.90;88.80;;;;;;4980023;28;20478;-88
2022/02/18 03:11:26;;;;;;;16.93;4.93;;;9.90;88.90;;;;;;4978624;28;20452;-89
2022/02/18 03:13:55;;;;;;;10.13;4.00;;;9.80;89.00;;;;;;4979990;28;20435;-89
2022/02/18 03:16:22;;;;;;;14.80;5.63;;;9.80;89.40;;;;;;4973380;28;20480;-88
2022/02/18 03:18:49;;;;;;;17.73;3.80;;;9.70;89.50;;;;;;4972223;28;20805;-87
2022/02/18 03:21:17;;;;;;;21.03;5.03;;;9.70;89.80;;;;;;4972943;28;20463;-88
2022/02/18 03:23:45;;;;;;;13.40;3.70;;;9.60;89.80;;;;;;4973549;29;20432;-88
2022/02/18 03:26:13;;;;;;;16.57;3.90;;;9.70;90.00;;;;;;4968164;28;20550;-87
2022/02/18 03:28:40;;;;;;;14.23;3.23;;;9.60;90.10;;;;;;4963871;28;20540;-88
2022/02/18 03:31:09;;;;;;;18.20;3.40;;;9.50;90.20;;;;;;4962584;28;20492;-88
2022/02/18 03:33:37;;;;;;;9.70;3.67;;;9.50;90.30;;;;;;4961867;29;20449;-88
2022/02/18 03:36:05;;;;;;;11.70;3.30;;;9.60;90.40;;;;;;4961167;28;20483;-88
2022/02/18 03:38:32;;;;;;;9.57;3.60;;;9.60;90.40;;;;;;4970640;28;20479;-88
2022/02/18 03:40:59;;;;;;;11.27;3.63;;;9.50;90.40;;;;;;4970291;28;20480;-88
2022/02/18 03:43:25;;;;;;;12.73;3.13;;;9.50;90.50;;;;;;4966924;29;20451;-88
2022/02/18 03:45:52;;;;;;;12.57;3.43;;;9.60;90.50;;;;;;4969229;28;20453;-88
2022/02/18 03:48:20;;;;;;;13.20;4.03;;;9.60;90.50;;;;;;4968401;28;20480;-88
2022/02/18 03:50:47;;;;;;;14.77;4.43;;;9.70;90.60;;;;;;4959671;28;20838;-88
2022/02/18 03:53:14;;;;;;;17.23;4.37;;;9.70;90.60;;;;;;4958613;29;20449;-88
2022/02/18 03:55:41;;;;;;;11.87;5.00;;;9.60;90.70;;;;;;4971262;29;20472;-89
2022/02/18 03:58:08;;;;;;;17.73;3.30;;;9.60;90.80;;;;;;4980384;28;20470;-88
2022/02/18 04:00:35;;;;;;;17.93;5.30;;;9.60;90.80;;;;;;4965154;28;20951;-88
2022/02/18 04:03:02;;;;;;;10.03;3.67;;;9.60;90.90;;;;;;4961998;28;20445;-87
2022/02/18 04:05:30;;;;;;;9.70;3.27;;;9.60;91.00;;;;;;4979112;28;20443;-89
2022/02/18 04:07:57;;;;;;;9.33;3.37;;;9.50;91.10;;;;;;4981160;28;20481;-89
2022/02/18 04:10:23;;;;;;;9.33;3.60;;;9.50;91.20;;;;;;4981476;28;20444;-90
2022/02/18 04:12:50;;;;;;;11.87;3.20;;;9.40;91.50;;;;;;4981143;28;20444;-88
2022/02/18 04:15:17;;;;;;;11.33;2.93;;;9.30;91.70;;;;;;4972937;28;20452;-88
2022/02/18 04:17:44;;;;;;;6.30;3.20;;;9.30;92.10;;;;;;4970372;28;20493;-88
2022/02/18 04:20:11;;;;;;;9.57;3.17;;;9.30;91.80;;;;;;4980928;28;20509;-89
2022/02/18 04:22:39;;;;;;;11.03;3.20;;;9.30;91.80;;;;;;4980903;28;20504;-89
2022/02/18 04:25:07;;;;;;;10.70;3.30;;;9.30;91.90;;;;;;4980596;28;20459;-89
2022/02/18 04:27:34;;;;;;;9.13;3.00;;;9.30;92.00;;;;;;4980394;28;20463;-88
2022/02/18 04:30:02;;;;;;;15.23;3.63;;;9.40;92.00;;;;;;4970530;29;20444;-89
2022/02/18 04:32:28;;;;;;;11.33;4.83;;;9.30;92.00;;;;;;4977159;28;20465;-88
2022/02/18 04:34:55;;;;;;;14.40;4.60;;;9.40;92.10;;;;;;4973286;29;20960;-88
2022/02/18 04:37:22;;;;;;;7.90;3.20;;;9.40;92.20;;;;;;4960044;28;20483;-88
2022/02/18 04:39:51;;;;;;;9.57;2.93;;;9.50;92.10;;;;;;4959900;29;20452;-88
2022/02/18 04:42:18;;;;;;;16.20;4.17;;;9.60;92.00;;;;;;4959129;28;20496;-88
2022/02/18 04:44:45;;;;;;;11.90;3.60;;;9.50;92.00;;;;;;4970497;28;20464;-88
2022/02/18 04:47:12;;;;;;;10.13;3.07;;;9.60;92.10;;;;;;4959345;28;20480;-88
2022/02/18 04:49:38;;;;;;;12.90;4.50;;;9.70;92.10;;;;;;4960320;28;20456;-88
2022/02/18 04:52:06;;;;;;;18.37;3.73;;;9.70;92.10;;;;;;4959213;29;20460;-89
2022/02/18 04:54:32;;;;;;;21.10;4.30;;;9.70;92.20;;;;;;4961906;28;20453;-90
2022/02/18 04:57:00;;;;;;;7.97;4.20;;;9.70;92.20;;;;;;4980641;28;20482;-90
2022/02/18 04:59:27;;;;;;;14.90;3.27;;;9.80;92.40;;;;;;4966505;28;20445;-88
2022/02/18 05:01:54;;;;;;;10.57;3.50;;;9.80;92.40;;;;;;4958200;29;20433;-88
2022/02/18 05:04:21;;;;;;;16.37;3.77;;;9.80;92.50;;;;;;4960290;28;20444;-88
2022/02/18 05:06:48;;;;;;;14.23;4.10;;;9.70;92.50;;;;;;4958346;28;20449;-88
2022/02/18 05:09:14;;;;;;;9.60;3.30;;;9.70;92.60;;;;;;4977531;28;20468;-89
2022/02/18 05:11:41;;;;;;;8.70;3.80;;;9.70;92.60;;;;;;4971711;28;20441;-88
2022/02/18 05:14:09;;;;;;;16.17;5.43;;;9.70;92.80;;;;;;4962731;29;20444;-88
2022/02/18 05:16:36;;;;;;;10.20;4.33;;;9.60;92.80;;;;;;4960800;28;20884;-88
2022/02/18 05:19:04;;;;;;;12.50;4.80;;;9.60;92.90;;;;;;4964890;28;20474;-88
2022/02/18 05:21:31;;;;;;;12.40;4.13;;;9.70;92.90;;;;;;4979367;28;20450;-88
2022/02/18 05:23:58;;;;;;;14.93;4.40;;;9.70;92.90;;;;;;4973111;28;20453;-89
2022/02/18 05:26:24;;;;;;;17.43;3.60;;;9.70;92.80;;;;;;4969701;28;20444;-88
2022/02/18 05:28:51;;;;;;;20.93;4.70;;;9.70;92.90;;;;;;4959368;28;20473;-88
2022/02/18 05:31:19;;;;;;;16.77;6.47;;;9.80;92.70;;;;;;4958571;29;20952;-88
2022/02/18 05:33:46;;;;;;;15.10;4.60;;;9.90;92.70;;;;;;4959182;29;20472;-88
2022/02/18 05:36:13;;;;;;;17.67;4.40;;;9.80;92.50;;;;;;4956831;29;20441;-88
2022/02/18 05:38:43;;;;;;;12.60;3.87;;;9.90;92.60;;;;;;4958451;28;20479;-88
2022/02/18 05:41:11;;;;;;;9.30;3.33;;;9.90;92.60;;;;;;4957885;29;20449;-88
2022/02/18 05:43:38;;;;;;;14.20;5.73;;;9.90;92.70;;;;;;4970075;29;20414;-88
2022/02/18 05:46:05;;;;;;;16.83;6.33;;;9.90;92.70;;;;;;4968367;28;20435;-89
2022/02/18 05:48:33;;;;;;;15.50;5.43;;;9.90;92.70;;;;;;4965017;28;20464;-88
2022/02/18 05:51:01;;;;;;;15.10;5.20;;;9.90;92.60;;;;;;4959481;29;20459;-89
2022/02/18 05:53:29;;;;;;;19.13;6.43;;;10.00;91.90;;;;;;4969317;28;20504;-89
2022/02/18 05:55:56;;;;;;;15.73;6.00;;;10.00;91.80;;;;;;4979396;28;20492;-88
2022/02/18 05:58:22;;;;;;;15.63;5.70;;;10.00;91.70;;;;;;4971356;28;20706;-89
2022/02/18 06:00:50;;;;;;;12.33;4.47;;;10.10;91.70;;;;;;4965749;28;20448;-90
2022/02/18 06:03:17;;;;;;;17.17;4.53;;;10.10;91.60;;;;;;4967960;29;20452;-87
2022/02/18 06:05:45;;;;;;;18.43;4.80;;;10.10;91.60;;;;;;4959763;29;20451;-89
2022/02/18 06:08:11;;;;;;;18.77;5.37;;;10.10;91.40;;;;;;4958318;28;20837;-88
2022/02/18 06:10:38;;;;;;;11.10;4.60;;;10.10;91.50;;;;;;4965906;28;20448;-89
2022/02/18 06:13:05;;;;;;;19.33;5.43;;;10.10;91.40;;;;;;4967236;28;20449;-89
2022/02/18 06:15:32;;;;;;;16.10;5.30;;;10.20;91.50;;;;;;4957562;29;20434;-88
2022/02/18 06:17:59;;;;;;;17.03;5.40;;;10.20;91.30;;;;;;4964821;28;20489;-89
2022/02/18 06:20:26;;;;;;;9.57;4.30;;;10.20;91.20;;;;;;4969742;28;20457;-88
2022/02/18 06:22:54;;;;;;;13.67;7.20;;;10.20;91.30;;;;;;4975190;29;20445;-89
2022/02/18 06:25:20;;;;;;;15.27;4.97;;;10.20;91.40;;;;;;4969603;29;20452;-88
2022/02/18 06:27:47;;;;;;;12.60;4.10;;;10.20;91.40;;;;;;4959147;28;20999;-89
2022/02/18 06:30:14;;;;;;;7.33;3.20;;;10.20;91.30;;;;;;4960560;29;20523;-88
2022/02/18 06:32:41;;;;;;;9.83;3.90;;;10.20;91.40;;;;;;4959990;29;20455;-87
2022/02/18 06:35:08;;;;;;;13.87;4.70;;;10.20;91.40;;;;;;4958754;28;20452;-87
2022/02/18 06:37:35;;;;;;;14.30;4.53;;;10.20;91.40;;;;;;4970700;28;20472;-88
2022/02/18 06:40:04;;;;;;;18.97;4.70;;;10.20;91.20;;;;;;4969114;28;20441;-89
2022/02/18 06:42:31;;;;;;;15.40;4.67;;;10.20;91.20;;;;;;4962079;29;20441;-89
2022/02/18 06:44:58;;;;;;;20.63;6.60;;;10.20;91.30;;;;;;4971094;28;20524;-90
2022/02/18 06:47:26;;;;;;;18.40;4.33;;;10.30;91.30;;;;;;4982790;28;20467;-87
2022/02/18 06:49:52;;;;;;;16.73;7.23;;;10.30;91.20;;;;;;4966794;29;20796;-89
2022/02/18 06:52:19;;;;;;;27.53;6.13;;;10.40;91.20;;;;;;4972445;28;20453;-89
2022/02/18 06:54:46;;;;;;;11.30;4.43;;;10.40;91.10;;;;;;4979073;28;20442;-88
2022/02/18 06:57:16;;;;;;;15.20;4.83;;;10.40;91.00;;;;;;4975428;28;20479;-87
2022/02/18 06:59:43;;;;;;;17.47;6.07;;;10.40;91.30;;;;;;4969213;28;20907;-87
2022/02/18 07:02:09;;;;;;;12.60;4.77;;;10.40;90.90;;;;;;4967154;28;20442;-87
2022/02/18 07:04:36;;;;;;;13.40;5.20;;;10.40;90.90;;;;;;4966331;28;20877;-88
2022/02/18 07:07:03;;;;;;;17.00;5.17;;;10.50;91.00;;;;;;4965966;28;20463;-88
2022/02/18 07:09:30;;;;;;;13.97;4.17;;;10.50;90.80;;;;;;4975537;28;20458;-87
2022/02/18 07:11:57;;;;;;;12.10;4.07;;;10.50;91.00;;;;;;4979556;28;20579;-88
2022/02/18 07:14:28;;;;;;;11.60;4.50;;;10.50;91.00;;;;;;4955583;28;20449;-88
2022/02/18 07:16:55;;;;;;;12.27;4.57;;;10.60;91.10;;;;;;4963091;28;20504;-88
2022/02/18 07:19:22;;;;;;;21.57;4.13;;;10.60;91.20;;;;;;4965028;28;20509;-88
2022/02/18 07:21:49;;;;;;;16.50;4.93;;;10.60;91.20;;;;;;4969968;28;20440;-86
2022/02/18 07:24:15;;;;;;;11.43;4.70;;;10.70;91.20;;;;;;4965645;28;20452;-86
2022/02/18 07:26:43;;;;;;;27.03;5.50;;;10.70;91.20;;;;;;4969281;28;20460;-86
2022/02/18 07:29:09;;;;;;;10.83;4.50;;;10.80;91.20;;;;;;4975701;28;20468;-88
2022/02/18 07:31:37;;;;;;;12.30;6.23;;;10.80;91.10;;;;;;4980025;28;20448;-89
2022/02/18 07:34:04;;;;;;;18.97;5.00;;;10.80;91.10;;;;;;4982078;28;20477;-89
2022/02/18 07:36:32;;;;;;;14.17;4.60;;;10.80;91.00;;;;;;4987417;28;20701;-89
2022/02/18 07:39:01;;;;;;;14.63;5.17;;;10.80;91.10;;;;;;4968596;28;20564;-88
2022/02/18 07:41:28;;;;;;;13.80;5.10;;;10.80;91.20;;;;;;4968048;28;20497;-86
2022/02/18 07:43:54;;;;;;;14.27;5.73;;;10.80;91.20;;;;;;4970861;28;20452;-88
2022/02/18 07:46:22;;;;;;;16.87;6.37;;;10.80;91.30;;;;;;4967692;28;21018;-88
2022/02/18 07:48:51;;;;;;;14.93;5.20;;;10.90;91.50;;;;;;4960024;28;20460;-89
2022/02/18 07:51:17;;;;;;;12.83;4.70;;;10.90;91.50;;;;;;4973614;28;20448;-88
2022/02/18 07:53:46;;;;;;;14.87;3.67;;;10.90;91.50;;;;;;4974526;28;20414;-85
2022/02/18 07:56:13;;;;;;;15.53;5.20;;;10.90;91.50;;;;;;4987248;28;20437;-84
2022/02/18 07:58:40;;;;;;;17.27;6.03;;;10.90;91.70;;;;;;4975356;28;21093;-87
2022/02/18 08:01:06;;;;;;;8.10;4.03;;;10.90;91.80;;;;;;4964260;28;20448;-86
2022/02/18 08:03:33;;;;;;;12.33;4.40;;;10.90;91.90;;;;;;4965444;28;20938;-88
2022/02/18 08:06:01;;;;;;;11.60;3.70;;;11.00;92.00;;;;;;4970975;28;20450;-88
2022/02/18 08:08:28;;;;;;;10.70;4.00;;;11.10;92.00;;;;;;4959648;28;20470;-88
2022/02/18 08:10:54;;;;;;;13.80;4.20;;;11.20;92.00;;;;;;4961440;28;20524;-88
2022/02/18 08:13:22;;;;;;;15.00;4.87;;;11.40;91.90;;;;;;4961205;28;20452;-88
2022/02/18 08:15:48;;;;;;;7.60;3.00;;;11.40;92.00;;;;;;4954436;28;20483;-89
2022/02/18 08:18:19;;;;;;;11.30;4.03;;;11.40;92.10;;;;;;4959690;28;21023;-88
2022/02/18 08:20:46;;;;;;;13.70;3.40;;;11.50;92.00;;;;;;4963108;28;20507;-89
2022/02/18 08:23:15;;;;;;;7.93;3.77;;;11.60;92.00;;;;;;4985617;23;20575;-87
2022/02/18 08:25:42;;;;;;;7.97;2.63;;;11.70;92.00;;;;;;4969708;29;20460;-87
2022/02/18 08:28:09;;;;;;;11.30;3.10;;;11.70;92.00;;;;;;4957852;29;20452;-87
2022/02/18 08:30:35;;;;;;;10.87;2.83;;;11.80;92.00;;;;;;4958060;28;20444;-87
2022/02/18 08:33:02;;;;;;;7.50;3.57;;;11.80;92.10;;;;;;4956840;28;20464;-87
2022/02/18 08:35:29;;;;;;;7.03;2.30;;;11.90;92.10;;;;;;4962982;29;20452;-87
2022/02/18 08:37:57;;;;;;;5.93;2.70;;;12.00;92.10;;;;;;4961138;29;20481;-87
2022/02/18 08:40:25;;;;;;;7.13;2.10;;;12.10;92.00;;;;;;4959237;28;20521;-88
2022/02/18 08:42:52;;;;;;;14.53;3.17;;;12.10;92.10;;;;;;4962098;28;20468;-88
2022/02/18 08:45:19;;;;;;;6.90;2.77;;;12.20;91.90;;;;;;4958113;28;20452;-87
2022/02/18 08:47:46;;;;;;;10.23;3.83;;;12.40;92.40;;;;;;4958800;28;20454;-87
2022/02/18 08:50:13;;;;;;;6.03;1.97;;;12.40;92.00;;;;;;4960280;28;20473;-88
2022/02/18 08:52:42;;;;;;;7.37;2.70;;;12.50;92.40;;;;;;4957538;28;20469;-87
2022/02/18 08:55:11;;;;;;;5.93;2.10;;;12.60;92.30;;;;;;4957333;28;20481;-87
2022/02/18 08:57:40;;;;;;;8.03;2.10;;;12.70;92.60;;;;;;4956510;28;20552;-87
2022/02/18 09:00:08;;;;;;;7.77;2.07;;;12.70;92.80;;;;;;4958103;28;20449;-88
2022/02/18 09:02:35;;;;;;;5.17;2.27;;;12.80;92.80;;;;;;4957659;28;20476;-87
2022/02/18 09:05:02;;;;;;;6.77;3.07;;;12.80;93.70;;;;;;4959219;29;20457;-87
2022/02/18 09:07:29;;;;;;;6.93;2.20;;;12.90;93.50;;;;;;4969282;29;20461;-88
2022/02/18 09:09:56;;;;;;;4.20;2.00;;;13.10;93.70;;;;;;4962228;29;20465;-87
2022/02/18 09:12:23;;;;;;;3.53;1.70;;;13.30;93.60;;;;;;4958354;28;20501;-87
2022/02/18 09:14:51;;;;;;;3.10;1.47;;;13.40;93.30;;;;;;4956881;29;20983;-88
2022/02/18 09:17:18;;;;;;;7.00;1.57;;;13.30;93.40;;;;;;4958122;29;20452;-87
2022/02/18 09:19:44;;;;;;;2.63;1.70;;;13.30;93.50;;;;;;4956719;29;20835;-87
2022/02/18 09:22:11;;;;;;;4.13;1.53;;;13.10;93.70;;;;;;4956626;28;20478;-87
2022/02/18 09:24:38;;;;;;;2.50;1.30;;;13.20;93.90;;;;;;4956513;29;20514;-88
2022/02/18 09:27:05;;;;;;;1.90;1.13;;;13.30;93.80;;;;;;4956142;28;20465;-88
2022/02/18 09:29:31;;;;;;;2.40;1.43;;;13.40;93.60;;;;;;4956496;28;20458;-88
2022/02/18 09:32:03;;;;;;;4.47;1.53;;;13.60;93.60;;;;;;4956797;28;20471;-88
2022/02/18 09:34:30;;;;;;;5.07;1.40;;;13.70;93.30;;;;;;4956820;29;20545;-87
2022/02/18 09:36:57;;;;;;;4.20;1.47;;;13.60;93.20;;;;;;4956626;29;20465;-87
2022/02/18 09:39:24;;;;;;;5.07;2.10;;;13.70;93.20;;;;;;4961353;28;20494;-88
2022/02/18 09:41:51;;;;;;;2.23;1.33;;;13.80;93.20;;;;;;4965968;28;20452;-87
2022/02/18 09:44:18;;;;;;;4.67;1.50;;;14.00;93.00;;;;;;4961021;29;20468;-88
2022/02/18 09:46:46;;;;;;;5.33;1.57;;;14.10;93.20;;;;;;4957298;28;20457;-88
2022/02/18 09:49:14;;;;;;;3.67;1.17;;;14.20;92.90;;;;;;4955652;29;20447;-87
2022/02/18 09:51:41;;;;;;;3.77;1.67;;;14.30;92.90;;;;;;4960703;28;20455;-87
2022/02/18 09:54:08;;;;;;;5.27;1.43;;;14.20;92.80;;;;;;4974789;28;20429;-87
2022/02/18 09:56:42;;;;;;;3.17;1.20;;;14.30;93.10;;;;;;4979344;28;20447;-87
2022/02/18 09:59:11;;;;;;;3.50;1.50;;;14.40;93.20;;;;;;4978347;28;20566;-87
2022/02/18 10:01:38;;;;;;;2.00;1.20;;;14.50;93.20;;;;;;4974630;28;20514;-87
2022/02/18 10:04:05;;;;;;;3.03;1.17;;;14.70;92.90;;;;;;4956105;29;20457;-87
2022/02/18 10:06:34;;;;;;;2.43;1.17;;;14.90;92.80;;;;;;4955822;29;20454;-87
2022/02/18 10:09:01;;;;;;;2.40;1.17;;;15.10;92.70;;;;;;4958172;28;20846;-87
2022/02/18 10:11:33;;;;;;;4.90;1.53;;;15.20;92.40;;;;;;4960557;29;20447;-88
2022/02/18 10:14:00;;;;;;;6.13;1.23;;;15.40;92.20;;;;;;4957171;28;20494;-87
2022/02/18 10:16:27;;;;;;;3.77;1.03;;;15.30;92.10;;;;;;4955588;28;20457;-87
2022/02/18 10:18:56;;;;;;;3.33;1.20;;;15.30;92.10;;;;;;4955116;29;20484;-88
2022/02/18 10:21:25;;;;;;;2.70;1.50;;;15.40;92.00;;;;;;4955360;28;20456;-88
2022/02/18 10:24:06;;;;;;;3.10;1.37;;;15.50;92.00;;;;;;4955126;28;20567;-88
2022/02/18 10:26:37;;;;;;;3.00;1.20;;;15.60;91.70;;;;;;4955830;29;20453;-88
2022/02/18 10:29:05;;;;;;;2.73;1.10;;;15.80;91.80;;;;;;4956982;29;20452;-88
2022/02/18 10:31:31;;;;;;;4.40;1.30;;;15.90;91.60;;;;;;4960420;29;20445;-87
2022/02/18 10:34:03;;;;;;;4.77;1.70;;;15.90;91.40;;;;;;4967238;28;20996;-88
2022/02/18 10:36:37;;;;;;;2.60;1.50;;;16.10;91.20;;;;;;4959163;29;20458;-87
2022/02/18 10:39:27;;;;;;;2.90;1.53;;;16.20;91.20;;;;;;4968037;29;20486;-88
2022/02/18 10:41:57;;;;;;;4.20;1.37;;;16.40;91.10;;;;;;4958295;28;20445;-87
2022/02/18 10:44:26;;;;;;;5.97;1.80;;;16.40;90.40;;;;;;4964262;29;20544;-88
2022/02/18 10:46:56;;;;;;;3.90;1.70;;;16.30;90.60;;;;;;4960477;29;20511;-88
2022/02/18 10:49:23;;;;;;;4.63;1.43;;;16.40;90.40;;;;;;4962502;28;20433;-88
2022/02/18 10:51:51;;;;;;;3.03;1.73;;;16.60;90.50;;;;;;4966813;28;20437;-88
2022/02/18 10:54:18;;;;;;;2.70;1.47;;;16.70;90.30;;;;;;4960871;28;20451;-88
2022/02/18 10:56:46;;;;;;;5.03;1.73;;;16.70;90.20;;;;;;4964354;28;20433;-88
2022/02/18 10:59:30;;;;;;;3.17;1.67;;;16.60;90.40;;;;;;4961984;29;20493;-88
2022/02/18 11:01:57;;;;;;;2.10;1.23;;;16.70;90.30;;;;;;4956340;28;20477;-88
2022/02/18 11:04:28;;;;;;;3.63;1.70;;;16.60;90.00;;;;;;4959307;29;20441;-91
2022/02/18 11:07:09;;;;;;;2.70;1.50;;;16.80;90.10;;;;;;4962810;29;20485;-88
2022/02/18 11:09:36;;;;;;;2.93;1.40;;;17.10;90.20;;;;;;4961178;29;20448;-88
2022/02/18 11:12:08;;;;;;;3.60;1.00;;;17.80;88.00;;;;;;4957274;28;20477;-87
2022/02/18 11:14:37;;;;;;;3.90;2.40;;;18.30;86.00;;;;;;4959970;29;20445;-90
2022/02/18 11:17:04;;;;;;;1.73;1.30;;;19.60;84.00;;;;;;4955752;28;20460;-89
2022/02/18 11:19:31;;;;;;;4.03;1.30;;;19.50;80.00;;;;;;4956579;29;21040;-90
2022/02/18 11:22:01;;;;;;;2.67;1.10;;;19.40;80.80;;;;;;4957360;28;20505;-89
2022/02/18 11:24:29;;;;;;;2.83;1.10;;;19.60;80.20;;;;;;4959088;29;20521;-90
2022/02/18 11:26:59;;;;;;;5.40;1.77;;;19.50;79.20;;;;;;4961834;29;20460;-89
2022/02/18 11:29:27;;;;;;;1.53;0.90;;;19.70;79.40;;;;;;4963202;29;20450;-90
2022/02/18 11:31:58;;;;;;;2.73;1.47;;;19.30;78.90;;;;;;4963987;28;20963;-89
2022/02/18 11:35:01;;;;;;;2.10;1.10;;;19.20;79.60;;;;;;4962540;29;20437;-91
2022/02/18 11:38:04;;;;;;;4.17;1.63;;;18.90;78.90;;;;;;4960024;29;20452;-89
2022/02/18 11:40:47;;;;;;;3.63;1.30;;;18.40;78.50;;;;;;4920487;29;20448;-90
2022/02/18 11:43:33;;;;;;;1.97;1.30;;;18.30;80.30;;;;;;4962994;28;20473;-89
2022/02/18 11:46:03;;;;;;;4.63;1.20;;;18.20;80.20;;;;;;4964069;29;20457;-88
2022/02/18 11:48:43;;;;;;;7.13;2.20;;;18.70;79.30;;;;;;4976535;29;20447;-88
2022/02/18 11:51:11;;;;;;;2.40;1.10;;;19.60;75.50;;;;;;4975874;29;20465;-88
2022/02/18 11:53:40;;;;;;;2.97;1.00;;;19.00;75.10;;;;;;4966832;28;20473;-88
2022/02/18 11:56:07;;;;;;;4.07;1.30;;;19.20;75.40;;;;;;4967881;28;21022;-90
2022/02/18 11:58:49;;;;;;;2.20;1.10;;;19.00;76.00;;;;;;4966263;29;20519;-89
2022/02/18 12:01:17;;;;;;;2.17;1.13;;;19.20;76.20;;;;;;4964721;29;20463;-89
2022/02/18 12:04:15;;;;;;;3.20;1.57;;;19.80;75.70;;;;;;4966547;28;20487;-87
2022/02/18 12:06:42;;;;;;;4.30;0.90;;;21.30;71.90;;;;;;4967902;29;20449;-90
2022/02/18 12:09:09;;;;;;;1.47;0.90;;;20.70;68.70;;;;;;4965929;29;20935;-90
2022/02/18 12:11:43;;;;;;;4.60;1.57;;;19.60;71.90;;;;;;4964886;28;20473;-89
2022/02/18 12:14:11;;;;;;;7.47;2.23;;;19.10;74.00;;;;;;4980870;28;20458;-88
2022/02/18 12:16:40;;;;;;;4.50;1.40;;;19.50;73.70;;;;;;4977634;28;20842;-89
2022/02/18 12:19:13;;;;;;;3.90;0.90;;;19.50;72.30;;;;;;4974575;29;20472;-89
2022/02/18 12:21:58;;;;;;;3.67;1.90;;;19.00;73.80;;;;;;4977746;28;20456;-89
2022/02/18 12:24:44;;;;;;;3.70;1.33;;;18.80;76.00;;;;;;4965339;28;20462;-86
2022/02/18 12:27:32;;;;;;;4.60;2.30;;;20.00;75.00;;;;;;4969813;29;20447;-89
2022/02/18 12:30:02;;;;;;;4.93;2.27;;;21.40;69.90;;;;;;4965105;28;20471;-89
2022/02/18 12:32:30;;;;;;;3.33;1.83;;;21.10;68.40;;;;;;4962816;28;20526;-89
2022/02/18 12:35:02;;;;;;;4.23;1.10;;;20.20;69.80;;;;;;4960850;28;20465;-87
2022/02/18 12:37:29;;;;;;;3.57;0.93;;;19.50;72.20;;;;;;4963108;29;20467;-87
2022/02/18 12:39:57;;;;;;;3.50;1.30;;;19.20;73.00;;;;;;4966797;28;20504;-89
2022/02/18 12:42:26;;;;;;;1.80;0.70;;;18.90;74.30;;;;;;4970911;28;20477;-88
2022/02/18 12:44:54;;;;;;;3.60;1.40;;;19.10;74.70;;;;;;4961664;28;20459;-87
2022/02/18 12:47:23;;;;;;;5.67;1.50;;;19.10;73.40;;;;;;4963850;29;20458;-88
2022/02/18 12:49:53;;;;;;;5.73;1.90;;;19.20;73.90;;;;;;4972722;29;20468;-87